sensor_id;sensor_type;location;lat;lon;timestamp;P1;durP1;ratioP1;P2;durP2;ratioP2
40637;SDS011;26336;44.696;10.622;2024-01-06T00:00:07;2.60;;;2.40;;
40637;SDS011;26336;44.696;10.622;2024-01-06T00:03:18;2.47;;;2.27;;
40637;SDS011;26336;44.696;10.622;2024-01-06T00:06:22;2.50;;;2.30;;
40637;SDS011;26336;44.696;10.622;2024-01-06T00:09:26;2.37;;;2.17;;
40637;SDS011;26336;44.696;10.622;2024-01-06T00:12:30;2.30;;;2.10;;
40637;SDS011;26336;44.696;10.622;2024-01-06T00:15:34;2.83;;;2.03;;
40637;SDS011;26336;44.696;10.622;2024-01-06T00:18:37;3.70;;;3.13;;
40637;SDS011;26336;44.696;10.622;2024-01-06T00:21:42;3.10;;;2.20;;
40637;SDS011;26336;44.696;10.622;2024-01-06T00:24:46;4.07;;;2.30;;
40637;SDS011;26336;44.696;10.622;2024-01-06T00:27:51;2.50;;;2.30;;
40637;SDS011;26336;44.696;10.622;2024-01-06T00:30:55;2.30;;;2.10;;
40637;SDS011;26336;44.696;10.622;2024-01-06T00:33:59;2.43;;;1.90;;
40637;SDS011;26336;44.696;10.622;2024-01-06T00:37:03;1.90;;;1.80;;
40637;SDS011;26336;44.696;10.622;2024-01-06T00:40:07;2.00;;;1.80;;
40637;SDS011;26336;44.696;10.622;2024-01-06T00:43:11;2.57;;;1.90;;
40637;SDS011;26336;44.696;10.622;2024-01-06T00:46:15;2.60;;;1.80;;
40637;SDS011;26336;44.696;10.622;2024-01-06T00:49:19;2.57;;;1.80;;
40637;SDS011;26336;44.696;10.622;2024-01-06T00:52:23;2.77;;;2.10;;
40637;SDS011;26336;44.696;10.622;2024-01-06T00:55:27;3.60;;;2.23;;
40637;SDS011;26336;44.696;10.622;2024-01-06T00:58:31;2.20;;;2.00;;
40637;SDS011;26336;44.696;10.622;2024-01-06T01:01:35;3.57;;;1.93;;
40637;SDS011;26336;44.696;10.622;2024-01-06T01:04:39;1.93;;;1.50;;
40637;SDS011;26336;44.696;10.622;2024-01-06T01:07:43;2.43;;;1.43;;
40637;SDS011;26336;44.696;10.622;2024-01-06T01:10:46;2.97;;;1.90;;
40637;SDS011;26336;44.696;10.622;2024-01-06T01:13:50;1.53;;;1.43;;
40637;SDS011;26336;44.696;10.622;2024-01-06T01:16:55;1.60;;;1.50;;
40637;SDS011;26336;44.696;10.622;2024-01-06T01:19:58;2.10;;;1.40;;
40637;SDS011;26336;44.696;10.622;2024-01-06T01:23:03;1.60;;;1.50;;
40637;SDS011;26336;44.696;10.622;2024-01-06T01:26:07;1.60;;;1.50;;
40637;SDS011;26336;44.696;10.622;2024-01-06T01:29:11;2.50;;;1.50;;
40637;SDS011;26336;44.696;10.622;2024-01-06T01:32:15;1.90;;;1.70;;
40637;SDS011;26336;44.696;10.622;2024-01-06T01:35:19;2.80;;;1.70;;
40637;SDS011;26336;44.696;10.622;2024-01-06T01:38:22;1.70;;;1.60;;
40637;SDS011;26336;44.696;10.622;2024-01-06T01:41:26;2.20;;;1.87;;
40637;SDS011;26336;44.696;10.622;2024-01-06T01:44:30;2.07;;;1.80;;
40637;SDS011;26336;44.696;10.622;2024-01-06T01:47:35;2.67;;;2.17;;
40637;SDS011;26336;44.696;10.622;2024-01-06T01:50:40;4.33;;;2.00;;
40637;SDS011;26336;44.696;10.622;2024-01-06T01:53:44;2.50;;;2.10;;
40637;SDS011;26336;44.696;10.622;2024-01-06T01:56:48;2.20;;;2.00;;
40637;SDS011;26336;44.696;10.622;2024-01-06T01:59:52;1.93;;;1.83;;
40637;SDS011;26336;44.696;10.622;2024-01-06T02:02:58;3.03;;;2.30;;
40637;SDS011;26336;44.696;10.622;2024-01-06T02:06:12;2.30;;;2.10;;
40637;SDS011;26336;44.696;10.622;2024-01-06T02:09:16;2.30;;;2.10;;
40637;SDS011;26336;44.696;10.622;2024-01-06T02:12:20;2.40;;;2.20;;
40637;SDS011;26336;44.696;10.622;2024-01-06T02:15:24;2.30;;;2.10;;
40637;SDS011;26336;44.696;10.622;2024-01-06T02:18:28;2.37;;;2.17;;
40637;SDS011;26336;44.696;10.622;2024-01-06T02:21:32;2.67;;;2.47;;
40637;SDS011;26336;44.696;10.622;2024-01-06T02:24:38;2.30;;;2.10;;
40637;SDS011;26336;44.696;10.622;2024-01-06T02:27:42;1.93;;;1.67;;
40637;SDS011;26336;44.696;10.622;2024-01-06T02:30:47;2.03;;;1.90;;
40637;SDS011;26336;44.696;10.622;2024-01-06T02:33:51;2.23;;;2.03;;
40637;SDS011;26336;44.696;10.622;2024-01-06T02:36:55;2.23;;;2.03;;
40637;SDS011;26336;44.696;10.622;2024-01-06T02:39:59;2.03;;;1.90;;
40637;SDS011;26336;44.696;10.622;2024-01-06T02:43:03;2.63;;;2.17;;
40637;SDS011;26336;44.696;10.622;2024-01-06T02:46:07;1.80;;;1.70;;
40637;SDS011;26336;44.696;10.622;2024-01-06T02:49:11;2.20;;;2.00;;
40637;SDS011;26336;44.696;10.622;2024-01-06T02:52:15;2.53;;;1.83;;
40637;SDS011;26336;44.696;10.622;2024-01-06T02:55:18;1.50;;;1.40;;
40637;SDS011;26336;44.696;10.622;2024-01-06T02:58:22;4.87;;;3.33;;
40637;SDS011;26336;44.696;10.622;2024-01-06T03:01:26;5.33;;;3.63;;
40637;SDS011;26336;44.696;10.622;2024-01-06T03:04:30;8.37;;;5.13;;
40637;SDS011;26336;44.696;10.622;2024-01-06T03:07:34;3.40;;;3.10;;
40637;SDS011;26336;44.696;10.622;2024-01-06T03:10:38;1.80;;;1.70;;
40637;SDS011;26336;44.696;10.622;2024-01-06T03:13:42;1.90;;;1.80;;
40637;SDS011;26336;44.696;10.622;2024-01-06T03:16:46;1.70;;;1.60;;
40637;SDS011;26336;44.696;10.622;2024-01-06T03:19:50;1.80;;;1.70;;
40637;SDS011;26336;44.696;10.622;2024-01-06T03:22:54;2.00;;;1.80;;
40637;SDS011;26336;44.696;10.622;2024-01-06T03:25:58;1.90;;;1.80;;
40637;SDS011;26336;44.696;10.622;2024-01-06T03:29:02;2.50;;;1.90;;
40637;SDS011;26336;44.696;10.622;2024-01-06T03:32:06;2.33;;;1.80;;
40637;SDS011;26336;44.696;10.622;2024-01-06T03:35:10;2.30;;;2.10;;
40637;SDS011;26336;44.696;10.622;2024-01-06T03:38:14;2.07;;;1.70;;
40637;SDS011;26336;44.696;10.622;2024-01-06T03:41:18;2.17;;;1.97;;
40637;SDS011;26336;44.696;10.622;2024-01-06T03:44:22;2.27;;;2.07;;
40637;SDS011;26336;44.696;10.622;2024-01-06T03:47:26;2.67;;;2.47;;
40637;SDS011;26336;44.696;10.622;2024-01-06T03:50:30;2.70;;;2.50;;
40637;SDS011;26336;44.696;10.622;2024-01-06T03:53:34;2.60;;;2.40;;
40637;SDS011;26336;44.696;10.622;2024-01-06T03:56:38;2.60;;;2.40;;
40637;SDS011;26336;44.696;10.622;2024-01-06T03:59:42;2.60;;;2.40;;
40637;SDS011;26336;44.696;10.622;2024-01-06T04:02:46;3.00;;;2.80;;
40637;SDS011;26336;44.696;10.622;2024-01-06T04:05:50;2.70;;;2.50;;
40637;SDS011;26336;44.696;10.622;2024-01-06T04:08:54;2.60;;;2.40;;
40637;SDS011;26336;44.696;10.622;2024-01-06T04:11:58;2.13;;;2.03;;
40637;SDS011;26336;44.696;10.622;2024-01-06T04:15:04;2.70;;;2.50;;
40637;SDS011;26336;44.696;10.622;2024-01-06T04:18:08;2.47;;;2.27;;
40637;SDS011;26336;44.696;10.622;2024-01-06T04:21:12;3.57;;;2.60;;
40637;SDS011;26336;44.696;10.622;2024-01-06T04:24:16;2.53;;;2.33;;
40637;SDS011;26336;44.696;10.622;2024-01-06T04:27:20;2.13;;;2.00;;
40637;SDS011;26336;44.696;10.622;2024-01-06T04:30:24;2.70;;;2.50;;
40637;SDS011;26336;44.696;10.622;2024-01-06T04:33:32;2.90;;;2.47;;
40637;SDS011;26336;44.696;10.622;2024-01-06T04:36:36;2.57;;;2.37;;
40637;SDS011;26336;44.696;10.622;2024-01-06T04:39:40;2.70;;;2.50;;
40637;SDS011;26336;44.696;10.622;2024-01-06T04:42:44;2.70;;;2.50;;
40637;SDS011;26336;44.696;10.622;2024-01-06T04:45:48;2.67;;;2.47;;
40637;SDS011;26336;44.696;10.622;2024-01-06T04:48:53;2.50;;;2.30;;
40637;SDS011;26336;44.696;10.622;2024-01-06T04:51:57;3.23;;;2.60;;
40637;SDS011;26336;44.696;10.622;2024-01-06T04:55:01;2.80;;;2.60;;
40637;SDS011;26336;44.696;10.622;2024-01-06T04:58:05;3.10;;;2.90;;
40637;SDS011;26336;44.696;10.622;2024-01-06T05:01:09;2.70;;;2.50;;
40637;SDS011;26336;44.696;10.622;2024-01-06T05:04:13;2.90;;;2.70;;
40637;SDS011;26336;44.696;10.622;2024-01-06T05:07:17;3.13;;;2.93;;
40637;SDS011;26336;44.696;10.622;2024-01-06T05:10:21;3.13;;;2.93;;
40637;SDS011;26336;44.696;10.622;2024-01-06T05:13:25;3.40;;;3.10;;
40637;SDS011;26336;44.696;10.622;2024-01-06T05:16:29;3.80;;;3.10;;
40637;SDS011;26336;44.696;10.622;2024-01-06T05:19:33;3.40;;;3.10;;
40637;SDS011;26336;44.696;10.622;2024-01-06T05:22:37;3.80;;;3.50;;
40637;SDS011;26336;44.696;10.622;2024-01-06T05:25:41;3.40;;;3.10;;
40637;SDS011;26336;44.696;10.622;2024-01-06T05:28:45;3.80;;;3.50;;
40637;SDS011;26336;44.696;10.622;2024-01-06T05:31:49;3.23;;;3.03;;
40637;SDS011;26336;44.696;10.622;2024-01-06T05:34:53;3.80;;;3.50;;
40637;SDS011;26336;44.696;10.622;2024-01-06T05:37:57;3.50;;;3.20;;
40637;SDS011;26336;44.696;10.622;2024-01-06T05:41:01;3.90;;;3.60;;
40637;SDS011;26336;44.696;10.622;2024-01-06T05:44:05;3.50;;;3.30;;
40637;SDS011;26336;44.696;10.622;2024-01-06T05:47:09;4.03;;;3.50;;
40637;SDS011;26336;44.696;10.622;2024-01-06T05:50:14;3.90;;;3.60;;
40637;SDS011;26336;44.696;10.622;2024-01-06T05:53:19;3.90;;;3.50;;
40637;SDS011;26336;44.696;10.622;2024-01-06T05:56:23;3.27;;;3.07;;
40637;SDS011;26336;44.696;10.622;2024-01-06T05:59:32;3.80;;;3.50;;
40637;SDS011;26336;44.696;10.622;2024-01-06T06:02:36;3.10;;;2.90;;
40637;SDS011;26336;44.696;10.622;2024-01-06T06:05:40;3.73;;;3.43;;
40637;SDS011;26336;44.696;10.622;2024-01-06T06:08:44;4.60;;;3.53;;
40637;SDS011;26336;44.696;10.622;2024-01-06T06:11:49;4.13;;;3.83;;
40637;SDS011;26336;44.696;10.622;2024-01-06T06:14:52;4.23;;;3.83;;
40637;SDS011;26336;44.696;10.622;2024-01-06T06:17:56;3.67;;;3.37;;
40637;SDS011;26336;44.696;10.622;2024-01-06T06:21:04;4.27;;;3.97;;
40637;SDS011;26336;44.696;10.622;2024-01-06T06:24:09;4.23;;;3.90;;
40637;SDS011;26336;44.696;10.622;2024-01-06T06:27:13;4.00;;;3.70;;
40637;SDS011;26336;44.696;10.622;2024-01-06T06:30:17;4.30;;;4.00;;
40637;SDS011;26336;44.696;10.622;2024-01-06T06:33:21;4.67;;;4.27;;
40637;SDS011;26336;44.696;10.622;2024-01-06T06:36:25;4.00;;;3.70;;
40637;SDS011;26336;44.696;10.622;2024-01-06T06:39:29;3.90;;;3.60;;
40637;SDS011;26336;44.696;10.622;2024-01-06T06:42:35;3.80;;;3.50;;
40637;SDS011;26336;44.696;10.622;2024-01-06T06:45:38;3.83;;;3.53;;
40637;SDS011;26336;44.696;10.622;2024-01-06T06:48:43;4.27;;;3.97;;
40637;SDS011;26336;44.696;10.622;2024-01-06T06:51:47;2.90;;;2.70;;
40637;SDS011;26336;44.696;10.622;2024-01-06T06:54:51;3.50;;;3.20;;
40637;SDS011;26336;44.696;10.622;2024-01-06T06:57:55;3.70;;;3.40;;
40637;SDS011;26336;44.696;10.622;2024-01-06T07:00:59;3.10;;;2.90;;
40637;SDS011;26336;44.696;10.622;2024-01-06T07:04:04;4.17;;;2.87;;
40637;SDS011;26336;44.696;10.622;2024-01-06T07:07:08;3.37;;;3.07;;
40637;SDS011;26336;44.696;10.622;2024-01-06T07:10:12;3.30;;;3.00;;
40637;SDS011;26336;44.696;10.622;2024-01-06T07:13:16;3.10;;;2.90;;
40637;SDS011;26336;44.696;10.622;2024-01-06T07:16:20;3.47;;;3.17;;
40637;SDS011;26336;44.696;10.622;2024-01-06T07:19:24;3.60;;;3.20;;
40637;SDS011;26336;44.696;10.622;2024-01-06T07:22:28;3.07;;;2.87;;
40637;SDS011;26336;44.696;10.622;2024-01-06T07:25:32;3.83;;;3.53;;
40637;SDS011;26336;44.696;10.622;2024-01-06T07:28:36;3.83;;;3.53;;
40637;SDS011;26336;44.696;10.622;2024-01-06T07:31:40;4.10;;;3.80;;
40637;SDS011;26336;44.696;10.622;2024-01-06T07:34:44;4.07;;;3.77;;
40637;SDS011;26336;44.696;10.622;2024-01-06T07:37:48;3.90;;;3.60;;
40637;SDS011;26336;44.696;10.622;2024-01-06T07:40:52;3.70;;;3.50;;
40637;SDS011;26336;44.696;10.622;2024-01-06T07:43:58;4.30;;;3.90;;
40637;SDS011;26336;44.696;10.622;2024-01-06T07:47:04;4.27;;;3.90;;
40637;SDS011;26336;44.696;10.622;2024-01-06T07:50:09;4.60;;;4.20;;
40637;SDS011;26336;44.696;10.622;2024-01-06T07:53:13;4.67;;;4.37;;
40637;SDS011;26336;44.696;10.622;2024-01-06T07:56:17;5.30;;;4.77;;
40637;SDS011;26336;44.696;10.622;2024-01-06T07:59:21;5.67;;;5.10;;
40637;SDS011;26336;44.696;10.622;2024-01-06T08:02:25;6.20;;;5.70;;
40637;SDS011;26336;44.696;10.622;2024-01-06T08:05:29;5.40;;;4.90;;
40637;SDS011;26336;44.696;10.622;2024-01-06T08:08:33;6.90;;;5.30;;
40637;SDS011;26336;44.696;10.622;2024-01-06T08:11:37;5.63;;;5.03;;
40637;SDS011;26336;44.696;10.622;2024-01-06T08:14:41;6.00;;;5.50;;
40637;SDS011;26336;44.696;10.622;2024-01-06T08:17:45;6.90;;;6.20;;
40637;SDS011;26336;44.696;10.622;2024-01-06T08:20:50;6.73;;;5.60;;
40637;SDS011;26336;44.696;10.622;2024-01-06T08:23:54;6.00;;;5.40;;
40637;SDS011;26336;44.696;10.622;2024-01-06T08:26:59;5.80;;;5.20;;
40637;SDS011;26336;44.696;10.622;2024-01-06T08:30:03;5.17;;;4.67;;
40637;SDS011;26336;44.696;10.622;2024-01-06T08:33:08;5.80;;;5.20;;
40637;SDS011;26336;44.696;10.622;2024-01-06T08:36:12;5.70;;;5.20;;
40637;SDS011;26336;44.696;10.622;2024-01-06T08:39:16;5.67;;;5.17;;
40637;SDS011;26336;44.696;10.622;2024-01-06T08:42:22;6.37;;;5.77;;
40637;SDS011;26336;44.696;10.622;2024-01-06T08:45:28;7.03;;;5.27;;
40637;SDS011;26336;44.696;10.622;2024-01-06T08:48:32;6.30;;;5.70;;
40637;SDS011;26336;44.696;10.622;2024-01-06T08:51:36;7.03;;;5.53;;
40637;SDS011;26336;44.696;10.622;2024-01-06T08:54:41;6.63;;;5.73;;
40637;SDS011;26336;44.696;10.622;2024-01-06T08:57:45;6.37;;;5.77;;
40637;SDS011;26336;44.696;10.622;2024-01-06T09:00:50;6.47;;;5.80;;
40637;SDS011;26336;44.696;10.622;2024-01-06T09:03:54;6.77;;;6.07;;
40637;SDS011;26336;44.696;10.622;2024-01-06T09:06:58;7.70;;;6.87;;
40637;SDS011;26336;44.696;10.622;2024-01-06T09:10:02;8.57;;;7.30;;
40637;SDS011;26336;44.696;10.622;2024-01-06T09:13:06;7.67;;;6.87;;
40637;SDS011;26336;44.696;10.622;2024-01-06T09:16:10;8.10;;;7.03;;
40637;SDS011;26336;44.696;10.622;2024-01-06T09:19:14;7.87;;;7.07;;
40637;SDS011;26336;44.696;10.622;2024-01-06T09:22:18;7.13;;;6.43;;
40637;SDS011;26336;44.696;10.622;2024-01-06T09:25:21;11.17;;;7.10;;
40637;SDS011;26336;44.696;10.622;2024-01-06T09:28:28;7.80;;;7.00;;
40637;SDS011;26336;44.696;10.622;2024-01-06T09:31:32;6.90;;;6.30;;
40637;SDS011;26336;44.696;10.622;2024-01-06T09:34:35;7.27;;;6.40;;
40637;SDS011;26336;44.696;10.622;2024-01-06T09:37:40;7.00;;;6.40;;
40637;SDS011;26336;44.696;10.622;2024-01-06T09:40:44;7.43;;;6.60;;
40637;SDS011;26336;44.696;10.622;2024-01-06T09:43:49;5.87;;;5.30;;
40637;SDS011;26336;44.696;10.622;2024-01-06T09:46:53;8.90;;;6.43;;
40637;SDS011;26336;44.696;10.622;2024-01-06T09:50:00;6.60;;;5.87;;
40637;SDS011;26336;44.696;10.622;2024-01-06T09:53:10;8.17;;;6.20;;
40637;SDS011;26336;44.696;10.622;2024-01-06T09:56:15;7.03;;;6.33;;
40637;SDS011;26336;44.696;10.622;2024-01-06T09:59:20;9.37;;;6.13;;
40637;SDS011;26336;44.696;10.622;2024-01-06T10:02:24;7.43;;;6.63;;
40637;SDS011;26336;44.696;10.622;2024-01-06T10:05:29;8.17;;;7.37;;
40637;SDS011;26336;44.696;10.622;2024-01-06T10:08:34;7.43;;;6.47;;
40637;SDS011;26336;44.696;10.622;2024-01-06T10:11:39;6.47;;;5.80;;
40637;SDS011;26336;44.696;10.622;2024-01-06T10:14:45;6.33;;;5.73;;
40637;SDS011;26336;44.696;10.622;2024-01-06T10:17:48;6.83;;;6.00;;
40637;SDS011;26336;44.696;10.622;2024-01-06T10:20:53;6.90;;;6.20;;
40637;SDS011;26336;44.696;10.622;2024-01-06T10:23:57;7.00;;;6.30;;
40637;SDS011;26336;44.696;10.622;2024-01-06T10:27:01;7.80;;;5.93;;
40637;SDS011;26336;44.696;10.622;2024-01-06T10:30:05;7.43;;;6.73;;
40637;SDS011;26336;44.696;10.622;2024-01-06T10:33:10;6.83;;;6.23;;
40637;SDS011;26336;44.696;10.622;2024-01-06T10:36:17;7.43;;;6.73;;
40637;SDS011;26336;44.696;10.622;2024-01-06T10:39:21;7.27;;;6.57;;
40637;SDS011;26336;44.696;10.622;2024-01-06T10:42:28;6.43;;;5.83;;
40637;SDS011;26336;44.696;10.622;2024-01-06T10:45:34;6.27;;;5.67;;
40637;SDS011;26336;44.696;10.622;2024-01-06T10:48:40;6.83;;;6.23;;
40637;SDS011;26336;44.696;10.622;2024-01-06T10:51:48;6.30;;;5.70;;
40637;SDS011;26336;44.696;10.622;2024-01-06T10:54:54;6.13;;;5.60;;
40637;SDS011;26336;44.696;10.622;2024-01-06T10:57:58;5.53;;;5.03;;
40637;SDS011;26336;44.696;10.622;2024-01-06T11:01:03;8.67;;;4.83;;
40637;SDS011;26336;44.696;10.622;2024-01-06T11:04:08;4.80;;;4.30;;
40637;SDS011;26336;44.696;10.622;2024-01-06T11:07:16;4.47;;;4.00;;
40637;SDS011;26336;44.696;10.622;2024-01-06T11:10:22;5.00;;;4.50;;
40637;SDS011;26336;44.696;10.622;2024-01-06T11:13:27;4.60;;;4.20;;
40637;SDS011;26336;44.696;10.622;2024-01-06T11:16:35;4.60;;;4.20;;
40637;SDS011;26336;44.696;10.622;2024-01-06T11:19:44;4.60;;;3.87;;
40637;SDS011;26336;44.696;10.622;2024-01-06T11:22:49;5.00;;;4.50;;
40637;SDS011;26336;44.696;10.622;2024-01-06T11:25:53;4.77;;;4.33;;
40637;SDS011;26336;44.696;10.622;2024-01-06T11:28:57;4.83;;;4.43;;
40637;SDS011;26336;44.696;10.622;2024-01-06T11:32:20;5.20;;;4.70;;
40637;SDS011;26336;44.696;10.622;2024-01-06T11:35:39;5.40;;;4.83;;
40637;SDS011;26336;44.696;10.622;2024-01-06T11:38:44;4.60;;;4.20;;
40637;SDS011;26336;44.696;10.622;2024-01-06T11:41:54;4.53;;;4.13;;
40637;SDS011;26336;44.696;10.622;2024-01-06T11:45:03;6.30;;;4.70;;
40637;SDS011;26336;44.696;10.622;2024-01-06T11:48:11;5.20;;;4.68;;
40637;SDS011;26336;44.696;10.622;2024-01-06T11:51:15;4.60;;;4.20;;
40637;SDS011;26336;44.696;10.622;2024-01-06T11:54:21;4.60;;;4.10;;
40637;SDS011;26336;44.696;10.622;2024-01-06T11:57:26;4.87;;;4.37;;
40637;SDS011;26336;44.696;10.622;2024-01-06T12:00:31;5.57;;;5.07;;
40637;SDS011;26336;44.696;10.622;2024-01-06T12:03:36;5.17;;;4.67;;
40637;SDS011;26336;44.696;10.622;2024-01-06T12:06:40;5.63;;;5.13;;
40637;SDS011;26336;44.696;10.622;2024-01-06T12:09:45;5.20;;;4.73;;
40637;SDS011;26336;44.696;10.622;2024-01-06T12:12:54;5.70;;;5.20;;
40637;SDS011;26336;44.696;10.622;2024-01-06T12:16:03;5.67;;;5.17;;
40637;SDS011;26336;44.696;10.622;2024-01-06T12:19:08;5.03;;;4.63;;
40637;SDS011;26336;44.696;10.622;2024-01-06T12:22:12;5.17;;;4.77;;
40637;SDS011;26336;44.696;10.622;2024-01-06T12:25:17;5.27;;;4.77;;
40637;SDS011;26336;44.696;10.622;2024-01-06T12:28:21;6.00;;;5.50;;
40637;SDS011;26336;44.696;10.622;2024-01-06T12:31:26;5.83;;;5.33;;
40637;SDS011;26336;44.696;10.622;2024-01-06T12:34:31;7.07;;;6.37;;
40637;SDS011;26336;44.696;10.622;2024-01-06T12:37:35;7.30;;;6.60;;
40637;SDS011;26336;44.696;10.622;2024-01-06T12:40:39;6.50;;;5.90;;
40637;SDS011;26336;44.696;10.622;2024-01-06T12:43:44;6.00;;;5.50;;
40637;SDS011;26336;44.696;10.622;2024-01-06T12:46:48;6.40;;;5.80;;
40637;SDS011;26336;44.696;10.622;2024-01-06T12:49:52;5.77;;;5.30;;
40637;SDS011;26336;44.696;10.622;2024-01-06T12:52:56;5.67;;;5.17;;
40637;SDS011;26336;44.696;10.622;2024-01-06T12:56:00;5.53;;;5.13;;
40637;SDS011;26336;44.696;10.622;2024-01-06T12:59:05;5.97;;;5.47;;
40637;SDS011;26336;44.696;10.622;2024-01-06T13:02:09;5.00;;;4.60;;
40637;SDS011;26336;44.696;10.622;2024-01-06T13:05:13;5.50;;;5.03;;
40637;SDS011;26336;44.696;10.622;2024-01-06T13:08:27;5.20;;;4.80;;
40637;SDS011;26336;44.696;10.622;2024-01-06T13:11:32;4.70;;;4.30;;
40637;SDS011;26336;44.696;10.622;2024-01-06T13:14:37;4.83;;;4.43;;
40637;SDS011;26336;44.696;10.622;2024-01-06T13:17:41;4.43;;;4.10;;
40637;SDS011;26336;44.696;10.622;2024-01-06T13:20:45;4.40;;;4.00;;
40637;SDS011;26336;44.696;10.622;2024-01-06T13:23:49;4.33;;;4.00;;
40637;SDS011;26336;44.696;10.622;2024-01-06T13:26:53;3.87;;;3.57;;
40637;SDS011;26336;44.696;10.622;2024-01-06T13:29:57;4.03;;;3.73;;
40637;SDS011;26336;44.696;10.622;2024-01-06T13:33:02;3.80;;;3.43;;
40637;SDS011;26336;44.696;10.622;2024-01-06T13:36:06;4.03;;;3.63;;
40637;SDS011;26336;44.696;10.622;2024-01-06T13:39:10;3.40;;;3.20;;
40637;SDS011;26336;44.696;10.622;2024-01-06T13:42:23;6.20;;;3.35;;
40637;SDS011;26336;44.696;10.622;2024-01-06T13:45:29;3.60;;;3.30;;
40637;SDS011;26336;44.696;10.622;2024-01-06T13:48:33;3.37;;;3.07;;
40637;SDS011;26336;44.696;10.622;2024-01-06T13:51:37;2.93;;;2.73;;
40637;SDS011;26336;44.696;10.622;2024-01-06T13:54:42;2.90;;;2.70;;
40637;SDS011;26336;44.696;10.622;2024-01-06T13:57:47;2.80;;;2.60;;
40637;SDS011;26336;44.696;10.622;2024-01-06T14:00:50;2.97;;;2.77;;
40637;SDS011;26336;44.696;10.622;2024-01-06T14:03:55;2.93;;;2.73;;
40637;SDS011;26336;44.696;10.622;2024-01-06T14:07:01;3.23;;;3.00;;
40637;SDS011;26336;44.696;10.622;2024-01-06T14:10:05;3.47;;;3.17;;
40637;SDS011;26336;44.696;10.622;2024-01-06T14:13:09;3.30;;;3.10;;
40637;SDS011;26336;44.696;10.622;2024-01-06T14:16:13;3.97;;;3.03;;
40637;SDS011;26336;44.696;10.622;2024-01-06T14:19:17;3.50;;;3.20;;
40637;SDS011;26336;44.696;10.622;2024-01-06T14:22:21;3.97;;;3.67;;
40637;SDS011;26336;44.696;10.622;2024-01-06T14:25:25;3.93;;;3.63;;
40637;SDS011;26336;44.696;10.622;2024-01-06T14:28:29;4.07;;;3.77;;
40637;SDS011;26336;44.696;10.622;2024-01-06T14:31:35;4.70;;;3.90;;
40637;SDS011;26336;44.696;10.622;2024-01-06T14:34:39;4.10;;;3.70;;
40637;SDS011;26336;44.696;10.622;2024-01-06T14:37:43;3.30;;;3.10;;
40637;SDS011;26336;44.696;10.622;2024-01-06T14:40:50;3.70;;;3.30;;
40637;SDS011;26336;44.696;10.622;2024-01-06T14:43:54;4.10;;;3.80;;
40637;SDS011;26336;44.696;10.622;2024-01-06T14:46:58;3.00;;;2.70;;
40637;SDS011;26336;44.696;10.622;2024-01-06T14:50:02;4.90;;;3.40;;
40637;SDS011;26336;44.696;10.622;2024-01-06T14:53:06;3.47;;;3.17;;
40637;SDS011;26336;44.696;10.622;2024-01-06T14:56:11;4.60;;;3.07;;
40637;SDS011;26336;44.696;10.622;2024-01-06T14:59:15;3.83;;;3.47;;
40637;SDS011;26336;44.696;10.622;2024-01-06T15:02:19;3.90;;;3.60;;
40637;SDS011;26336;44.696;10.622;2024-01-06T15:05:23;4.00;;;3.60;;
40637;SDS011;26336;44.696;10.622;2024-01-06T15:08:31;4.07;;;3.67;;
40637;SDS011;26336;44.696;10.622;2024-01-06T15:11:35;4.73;;;4.10;;
40637;SDS011;26336;44.696;10.622;2024-01-06T15:14:39;4.50;;;4.10;;
40637;SDS011;26336;44.696;10.622;2024-01-06T15:17:43;3.57;;;3.27;;
40637;SDS011;26336;44.696;10.622;2024-01-06T15:20:47;3.47;;;3.17;;
40637;SDS011;26336;44.696;10.622;2024-01-06T15:23:51;3.80;;;3.50;;
40637;SDS011;26336;44.696;10.622;2024-01-06T15:26:56;3.43;;;3.13;;
40637;SDS011;26336;44.696;10.622;2024-01-06T15:30:00;3.90;;;3.40;;
40637;SDS011;26336;44.696;10.622;2024-01-06T15:33:05;4.07;;;3.40;;
40637;SDS011;26336;44.696;10.622;2024-01-06T15:36:09;3.90;;;3.60;;
40637;SDS011;26336;44.696;10.622;2024-01-06T15:39:16;4.00;;;3.67;;
40637;SDS011;26336;44.696;10.622;2024-01-06T15:42:20;3.33;;;3.10;;
40637;SDS011;26336;44.696;10.622;2024-01-06T15:45:24;4.00;;;3.70;;
40637;SDS011;26336;44.696;10.622;2024-01-06T15:48:28;4.80;;;4.40;;
40637;SDS011;26336;44.696;10.622;2024-01-06T15:51:32;4.23;;;3.87;;
40637;SDS011;26336;44.696;10.622;2024-01-06T15:54:35;4.20;;;3.90;;
40637;SDS011;26336;44.696;10.622;2024-01-06T15:57:39;4.17;;;3.87;;
40637;SDS011;26336;44.696;10.622;2024-01-06T16:00:44;3.70;;;3.40;;
40637;SDS011;26336;44.696;10.622;2024-01-06T16:03:48;3.90;;;3.60;;
40637;SDS011;26336;44.696;10.622;2024-01-06T16:06:53;4.00;;;3.70;;
40637;SDS011;26336;44.696;10.622;2024-01-06T16:09:57;4.53;;;4.13;;
40637;SDS011;26336;44.696;10.622;2024-01-06T16:13:01;4.23;;;3.83;;
40637;SDS011;26336;44.696;10.622;2024-01-06T16:16:05;3.73;;;3.43;;
40637;SDS011;26336;44.696;10.622;2024-01-06T16:19:09;4.17;;;3.77;;
40637;SDS011;26336;44.696;10.622;2024-01-06T16:22:13;4.60;;;3.87;;
40637;SDS011;26336;44.696;10.622;2024-01-06T16:25:17;4.50;;;4.10;;
40637;SDS011;26336;44.696;10.622;2024-01-06T16:28:21;4.73;;;4.23;;
40637;SDS011;26336;44.696;10.622;2024-01-06T16:31:25;4.97;;;3.83;;
40637;SDS011;26336;44.696;10.622;2024-01-06T16:34:30;4.30;;;4.00;;
40637;SDS011;26336;44.696;10.622;2024-01-06T16:37:34;4.50;;;4.10;;
40637;SDS011;26336;44.696;10.622;2024-01-06T16:40:38;4.90;;;4.50;;
40637;SDS011;26336;44.696;10.622;2024-01-06T16:43:43;5.03;;;4.63;;
40637;SDS011;26336;44.696;10.622;2024-01-06T16:46:47;5.43;;;4.93;;
40637;SDS011;26336;44.696;10.622;2024-01-06T16:49:52;8.63;;;5.90;;
40637;SDS011;26336;44.696;10.622;2024-01-06T16:52:58;7.50;;;6.30;;
40637;SDS011;26336;44.696;10.622;2024-01-06T16:56:03;7.43;;;6.73;;
40637;SDS011;26336;44.696;10.622;2024-01-06T16:59:07;7.30;;;6.17;;
40637;SDS011;26336;44.696;10.622;2024-01-06T17:02:11;7.20;;;6.50;;
40637;SDS011;26336;44.696;10.622;2024-01-06T17:05:18;7.13;;;6.43;;
40637;SDS011;26336;44.696;10.622;2024-01-06T17:08:22;7.27;;;6.57;;
40637;SDS011;26336;44.696;10.622;2024-01-06T17:11:26;7.83;;;7.07;;
40637;SDS011;26336;44.696;10.622;2024-01-06T17:14:29;7.43;;;6.83;;
40637;SDS011;26336;44.696;10.622;2024-01-06T17:17:34;8.87;;;7.87;;
40637;SDS011;26336;44.696;10.622;2024-01-06T17:20:40;8.97;;;8.07;;
40637;SDS011;26336;44.696;10.622;2024-01-06T17:23:45;8.90;;;8.00;;
40637;SDS011;26336;44.696;10.622;2024-01-06T17:26:50;10.33;;;9.33;;
40637;SDS011;26336;44.696;10.622;2024-01-06T17:29:54;9.63;;;8.57;;
40637;SDS011;26336;44.696;10.622;2024-01-06T17:33:04;9.70;;;8.70;;
40637;SDS011;26336;44.696;10.622;2024-01-06T17:36:08;9.80;;;8.90;;
40637;SDS011;26336;44.696;10.622;2024-01-06T17:39:12;10.27;;;9.27;;
40637;SDS011;26336;44.696;10.622;2024-01-06T17:42:16;12.13;;;10.83;;
40637;SDS011;26336;44.696;10.622;2024-01-06T17:45:20;10.57;;;9.47;;
40637;SDS011;26336;44.696;10.622;2024-01-06T17:48:24;9.53;;;8.53;;
40637;SDS011;26336;44.696;10.622;2024-01-06T17:51:28;9.20;;;8.30;;
40637;SDS011;26336;44.696;10.622;2024-01-06T17:54:38;9.10;;;8.20;;
40637;SDS011;26336;44.696;10.622;2024-01-06T17:57:41;9.50;;;8.60;;
40637;SDS011;26336;44.696;10.622;2024-01-06T18:00:46;9.83;;;8.83;;
40637;SDS011;26336;44.696;10.622;2024-01-06T18:03:50;8.90;;;8.00;;
40637;SDS011;26336;44.696;10.622;2024-01-06T18:06:54;9.77;;;8.87;;
40637;SDS011;26336;44.696;10.622;2024-01-06T18:09:58;10.53;;;9.23;;
40637;SDS011;26336;44.696;10.622;2024-01-06T18:13:02;9.87;;;8.87;;